Mainsville, Pennsylvania
Current Conditions -  °F | °C
As of 10:53 PM on Sunday 23 Nov 2014 (Local Time) from KRYT Reporting Station
Light Rain Light Rain  
Wind Chill: 43°   Ceiling: 400
Heat Index: 43°   Visibility: 0.75mi
Dew Point: 41°   Wind: 0mph
Humidity: 93%   Direction: NA
Pressure: 29.85"   Gusts: NA
Location:  40.0414°N, 77.4967°W
Report Text: KRYT 240353Z AUTO 00000KT 3/4SM -RA BR VV004 06/05 A2985 RMK AO2 SLP112 P0010 T00610050 $
Loading
Personal Weather Stations






























Interactive Weather Map New forecast layout! Learn more

10-Day Weather Forecast

Advertisements
Track Severe Weather on mobile